createdAt,value
2018-07-22T00:00:39.091Z,61.57
2018-07-22T00:03:07.494Z,61.88
2018-07-22T00:05:35.904Z,62.43
2018-07-22T00:08:04.265Z,62.80
2018-07-22T00:10:32.596Z,63.75
2018-07-22T00:13:01.251Z,64.62
2018-07-22T00:15:29.750Z,65.61
2018-07-22T00:17:58.182Z,65.09
2018-07-22T00:20:26.518Z,65.48
2018-07-22T00:22:54.894Z,65.51
2018-07-22T00:25:23.234Z,65.19
2018-07-22T00:27:51.672Z,66.31
2018-07-22T00:30:19.997Z,66.33
2018-07-22T00:32:48.291Z,65.19
2018-07-22T00:35:16.592Z,65.60
2018-07-22T00:37:45.007Z,66.51
2018-07-22T00:40:13.359Z,66.02
2018-07-22T00:42:42.063Z,65.97
2018-07-22T00:45:12.545Z,65.87
2018-07-22T00:47:41.319Z,66.28
2018-07-22T00:50:09.687Z,66.05
2018-07-22T00:52:38.254Z,66.79
2018-07-22T00:55:06.885Z,66.85
2018-07-22T00:57:35.208Z,67.89
2018-07-22T01:00:04.215Z,67.74
2018-07-22T01:02:32.509Z,67.40
2018-07-22T01:05:00.818Z,67.12
2018-07-22T01:07:29.267Z,67.48
2018-07-22T01:09:57.600Z,67.73
2018-07-22T01:12:25.925Z,67.49
2018-07-22T01:14:54.503Z,68.44
2018-07-22T01:17:22.821Z,68.43
2018-07-22T01:19:51.126Z,68.76
2018-07-22T01:22:19.451Z,68.40
2018-07-22T01:24:47.731Z,67.89
2018-07-22T01:27:16.063Z,68.06
2018-07-22T01:29:44.402Z,68.53
2018-07-22T01:32:12.775Z,68.86
2018-07-22T01:34:41.066Z,67.64
2018-07-22T01:37:09.419Z,67.50
2018-07-22T01:39:37.727Z,68.06
2018-07-22T01:42:06.052Z,68.63
2018-07-22T01:44:34.337Z,68.08
2018-07-22T01:47:02.684Z,68.48
2018-07-22T01:49:31.067Z,68.24
2018-07-22T01:51:59.394Z,68.92
2018-07-22T01:54:27.679Z,68.99
2018-07-22T01:56:55.982Z,70.08
2018-07-22T01:59:24.336Z,70.09
2018-07-22T02:01:52.688Z,70.92
2018-07-22T02:04:20.967Z,70.46
2018-07-22T02:06:49.369Z,70.79
2018-07-22T02:09:17.885Z,70.43
2018-07-22T02:11:46.233Z,72.79
2018-07-22T02:14:14.536Z,71.97
2018-07-22T02:16:42.965Z,73.12
2018-07-22T02:19:11.273Z,72.91
2018-07-22T02:21:39.782Z,72.79
2018-07-22T02:24:08.062Z,73.53
2018-07-22T02:26:36.379Z,72.70
2018-07-22T02:29:04.675Z,74.03
2018-07-22T02:31:33.043Z,74.87
2018-07-22T02:34:01.306Z,76.13
2018-07-22T02:36:29.610Z,76.78
2018-07-22T02:38:57.872Z,75.51
2018-07-22T02:41:26.218Z,76.76
2018-07-22T02:43:54.517Z,77.29
2018-07-22T02:46:22.978Z,80.24
2018-07-22T02:48:51.323Z,81.62
2018-07-22T02:51:19.776Z,79.83
2018-07-22T02:53:48.167Z,79.46
2018-07-22T02:56:16.818Z,81.76
2018-07-22T02:58:45.150Z,82.04
2018-07-22T03:01:13.515Z,83.65
2018-07-22T03:03:41.894Z,83.95
2018-07-22T03:06:10.215Z,85.21
2018-07-22T03:08:38.489Z,83.94
2018-07-22T03:11:06.871Z,83.45
2018-07-22T03:13:35.204Z,82.78
2018-07-22T03:16:03.503Z,82.43
2018-07-22T03:18:31.861Z,81.85
2018-07-22T03:21:00.252Z,82.64
2018-07-22T03:23:28.602Z,83.75
2018-07-22T03:25:57.035Z,84.97
2018-07-22T03:28:25.377Z,85.61
2018-07-22T03:30:53.684Z,84.08
2018-07-22T03:33:21.990Z,83.68
2018-07-22T03:35:50.313Z,82.26
2018-07-22T03:38:18.686Z,85.67
2018-07-22T03:40:46.983Z,86.33
2018-07-22T03:43:15.651Z,85.66
2018-07-22T03:45:43.999Z,84.79
2018-07-22T03:48:12.323Z,84.22
2018-07-22T03:50:40.588Z,84.41
2018-07-22T03:53:08.944Z,84.51
2018-07-22T03:55:37.247Z,87.43
2018-07-22T03:58:05.746Z,86.80
2018-07-22T04:00:34.049Z,86.62
2018-07-22T04:03:02.392Z,87.63
2018-07-22T04:05:30.708Z,87.74
2018-07-22T04:07:59.022Z,88.08
2018-07-22T04:10:27.289Z,87.93
2018-07-22T04:12:55.598Z,88.09
2018-07-22T04:15:23.915Z,87.50
2018-07-22T04:17:52.479Z,88.27
2018-07-22T04:20:20.795Z,88.49
2018-07-22T04:22:49.629Z,88.28
2018-07-22T04:25:18.526Z,88.50
2018-07-22T04:27:47.368Z,88.65
2018-07-22T04:30:15.751Z,89.26
2018-07-22T04:32:44.209Z,88.76
2018-07-22T04:35:12.475Z,87.55
2018-07-22T04:37:41.111Z,86.92
2018-07-22T04:40:09.621Z,86.67
2018-07-22T04:42:38.648Z,85.14
2018-07-22T04:45:07.403Z,84.76
2018-07-22T04:47:35.730Z,84.75
2018-07-22T04:50:04.106Z,84.92
2018-07-22T04:52:32.494Z,85.10
2018-07-22T04:55:00.852Z,85.06
2018-07-22T04:57:29.403Z,87.09
2018-07-22T04:59:57.729Z,87.44
2018-07-22T05:02:26.019Z,87.61
2018-07-22T05:04:54.351Z,87.81
2018-07-22T05:07:23.937Z,87.75
2018-07-22T05:09:52.259Z,86.74
2018-07-22T05:12:20.660Z,86.27
2018-07-22T05:14:49.038Z,85.99
2018-07-22T05:17:17.354Z,84.94
2018-07-22T05:19:45.694Z,85.78
2018-07-22T05:22:14.001Z,84.26
2018-07-22T05:24:42.318Z,84.13
2018-07-22T05:27:10.684Z,84.31
2018-07-22T05:29:39.538Z,84.20
2018-07-22T05:32:07.875Z,83.25
2018-07-22T05:34:36.268Z,84.74
2018-07-22T05:37:04.588Z,83.75
2018-07-22T05:39:32.993Z,83.76
2018-07-22T05:42:01.375Z,84.06
2018-07-22T05:44:29.695Z,83.42
2018-07-22T05:46:58.061Z,84.42
2018-07-22T05:49:26.403Z,82.95
2018-07-22T05:51:54.738Z,83.07
2018-07-22T05:54:24.281Z,83.48
2018-07-22T05:56:52.654Z,83.36
2018-07-22T05:59:21.002Z,83.79
2018-07-22T06:01:49.294Z,83.43
2018-07-22T06:04:17.619Z,83.91
2018-07-22T06:06:45.964Z,82.59
2018-07-22T06:09:14.310Z,82.51
2018-07-22T06:11:42.610Z,82.87
2018-07-22T06:14:10.958Z,83.59
2018-07-22T06:16:39.357Z,83.96
2018-07-22T06:19:07.639Z,83.34
2018-07-22T06:21:35.994Z,82.80
2018-07-22T06:24:04.312Z,81.96
2018-07-22T06:26:32.638Z,81.37
2018-07-22T06:29:00.955Z,81.88
2018-07-22T06:31:29.301Z,83.13
2018-07-22T06:33:57.697Z,81.61
2018-07-22T06:36:26.022Z,82.85
2018-07-22T06:38:54.297Z,82.92
2018-07-22T06:41:22.708Z,81.56
2018-07-22T06:43:51.065Z,80.92
2018-07-22T06:46:19.373Z,80.83
2018-07-22T06:48:47.904Z,81.52
2018-07-22T06:51:16.427Z,80.63
2018-07-22T06:53:44.908Z,80.80
2018-07-22T06:56:13.254Z,80.71
2018-07-22T06:58:41.627Z,80.80
2018-07-22T07:01:09.967Z,80.21
2018-07-22T07:03:38.243Z,79.44
2018-07-22T07:06:06.617Z,79.61
2018-07-22T07:08:35.015Z,78.55
2018-07-22T07:11:03.564Z,78.23
2018-07-22T07:13:32.830Z,78.33
2018-07-22T07:16:01.135Z,79.32
2018-07-22T07:18:29.462Z,79.75
2018-07-22T07:20:57.788Z,77.81
2018-07-22T07:23:26.084Z,78.70
2018-07-22T07:25:55.150Z,77.04
2018-07-22T07:28:23.427Z,76.76
2018-07-22T07:30:52.101Z,75.21
2018-07-22T07:33:20.948Z,75.16
2018-07-22T07:35:49.637Z,75.23
2018-07-22T07:38:18.157Z,73.85
2018-07-22T07:40:47.515Z,71.84
2018-07-22T07:43:16.411Z,70.55
2018-07-22T07:45:45.147Z,70.79
2018-07-22T07:48:13.950Z,69.18
2018-07-22T07:50:42.910Z,69.13
2018-07-22T07:53:12.535Z,69.11
2018-07-22T07:55:43.006Z,67.81
2018-07-22T07:58:30.692Z,67.98
2018-07-22T08:01:01.444Z,68.44
2018-07-22T08:03:34.761Z,68.24
2018-07-22T08:06:03.699Z,67.75
2018-07-22T08:08:34.549Z,67.86
2018-07-22T08:11:03.104Z,67.65
2018-07-22T08:13:31.844Z,68.41
2018-07-22T08:16:00.793Z,67.75
2018-07-22T08:18:30.856Z,67.11
2018-07-22T08:20:59.611Z,68.34
2018-07-22T08:26:02.059Z,67.95
2018-07-22T08:29:48.841Z,65.80
2018-07-22T08:32:17.612Z,66.46
2018-07-22T08:34:46.237Z,66.48
2018-07-22T08:37:14.963Z,65.85
2018-07-22T08:39:43.572Z,65.37
2018-07-22T08:42:12.369Z,64.80
2018-07-22T08:44:41.117Z,64.21
2018-07-22T08:47:09.826Z,63.06
2018-07-22T08:49:40.917Z,63.38
2018-07-22T08:52:09.555Z,63.83
2018-07-22T08:54:38.097Z,64.26
2018-07-22T08:57:06.915Z,62.86
2018-07-22T08:59:36.674Z,61.51
2018-07-22T09:02:05.420Z,61.01
2018-07-22T09:04:33.920Z,62.61
2018-07-22T09:07:02.555Z,61.72
2018-07-22T09:09:30.998Z,61.70
2018-07-22T09:11:59.504Z,62.47
2018-07-22T09:14:27.942Z,62.59
2018-07-22T09:16:56.615Z,63.57
2018-07-22T09:19:25.211Z,61.99
2018-07-22T09:21:53.790Z,63.62
2018-07-22T09:24:22.396Z,63.22
2018-07-22T09:26:50.877Z,63.24
2018-07-22T09:29:20.452Z,63.69
2018-07-22T09:31:49.189Z,62.94
2018-07-22T09:34:18.576Z,63.22
2018-07-22T09:36:47.211Z,62.93
2018-07-22T09:39:15.760Z,62.23
2018-07-22T09:41:45.266Z,61.84
2018-07-22T09:44:13.848Z,61.92
2018-07-22T09:46:56.454Z,60.90
2018-07-22T09:49:25.468Z,61.26
2018-07-22T09:51:53.784Z,59.72
2018-07-22T09:54:22.183Z,59.80
2018-07-22T09:56:50.731Z,58.41
2018-07-22T09:59:19.057Z,57.87
2018-07-22T10:01:47.343Z,57.29
2018-07-22T10:04:15.607Z,57.34
2018-07-22T10:06:43.911Z,56.63
2018-07-22T10:09:12.646Z,56.88
2018-07-22T10:11:40.981Z,55.65
2018-07-22T10:14:09.433Z,56.77
2018-07-22T10:16:37.859Z,54.78
2018-07-22T10:19:06.896Z,54.49
2018-07-22T10:21:35.340Z,54.13
2018-07-22T10:24:03.817Z,53.00
2018-07-22T10:26:32.467Z,54.14
2018-07-22T10:29:02.023Z,53.81
2018-07-22T10:31:30.347Z,54.51
2018-07-22T10:33:59.610Z,53.43
2018-07-22T10:36:27.996Z,51.33
2018-07-22T10:38:56.570Z,51.66
2018-07-22T10:41:26.551Z,51.25
2018-07-22T10:43:54.864Z,50.32
2018-07-22T10:46:26.525Z,50.34
2018-07-22T10:48:57.427Z,49.97
2018-07-22T10:51:26.628Z,51.76
2018-07-22T10:53:55.016Z,52.06
2018-07-22T10:56:23.511Z,52.17
2018-07-22T10:58:52.280Z,51.30
2018-07-22T11:01:21.667Z,52.33
2018-07-22T11:03:50.708Z,52.43
2018-07-22T11:06:19.062Z,52.33
2018-07-22T11:08:48.262Z,52.18
2018-07-22T11:11:16.658Z,52.31
2018-07-22T11:13:45.093Z,52.97
2018-07-22T11:16:13.375Z,52.19
2018-07-22T11:18:42.826Z,52.66
2018-07-22T11:21:12.632Z,52.30
2018-07-22T11:23:41.938Z,53.54
2018-07-22T11:26:12.067Z,53.27
2018-07-22T11:28:40.746Z,53.20
2018-07-22T11:31:09.965Z,52.13
2018-07-22T11:33:39.238Z,53.15
2018-07-22T11:36:07.978Z,53.42
2018-07-22T11:38:37.785Z,53.96
2018-07-22T11:41:06.890Z,53.49
2018-07-22T11:43:35.275Z,52.12
2018-07-22T11:46:04.646Z,52.92
2018-07-22T11:48:34.446Z,50.10
2018-07-22T11:51:04.175Z,49.81
2018-07-22T11:53:33.318Z,49.84
2018-07-22T11:56:01.842Z,48.57
2018-07-22T11:58:31.139Z,48.68
2018-07-22T12:01:01.037Z,49.64
2018-07-22T12:03:29.690Z,48.40
2018-07-22T12:05:59.697Z,46.78
2018-07-22T12:08:28.165Z,45.48
2018-07-22T12:10:57.146Z,45.96
2018-07-22T12:13:27.196Z,47.23
2018-07-22T12:15:56.297Z,47.02
2018-07-22T12:18:24.788Z,47.12
2018-07-22T12:20:53.755Z,47.78
2018-07-22T12:23:24.502Z,46.12
2018-07-22T12:25:55.021Z,46.38
2018-07-22T12:28:23.491Z,45.89
2018-07-22T12:30:52.067Z,46.55
2018-07-22T12:33:20.432Z,46.26
2018-07-22T12:35:49.035Z,45.57
2018-07-22T12:38:17.600Z,46.53
2018-07-22T12:40:46.508Z,48.58
2018-07-22T12:43:14.868Z,47.47
2018-07-22T12:45:43.260Z,48.69
2018-07-22T12:48:11.667Z,49.64
2018-07-22T12:50:40.081Z,49.41
2018-07-22T12:53:08.867Z,51.63
2018-07-22T12:55:37.331Z,57.84
2018-07-22T12:58:05.723Z,58.10
2018-07-22T13:00:34.070Z,57.82
2018-07-22T13:03:04.415Z,58.31
2018-07-22T13:05:32.875Z,58.65
2018-07-22T13:08:01.735Z,60.67
2018-07-22T13:10:30.094Z,65.28
2018-07-22T13:12:58.590Z,67.65
2018-07-22T13:15:26.943Z,68.09
2018-07-22T13:17:55.569Z,69.47
2018-07-22T13:20:23.966Z,73.15
2018-07-22T13:22:52.643Z,78.17
2018-07-22T13:25:20.986Z,78.30
2018-07-22T13:27:49.361Z,79.25
2018-07-22T13:30:17.872Z,82.93
2018-07-22T13:32:46.772Z,83.42
2018-07-22T13:35:15.482Z,84.33
2018-07-22T13:37:44.026Z,84.53
2018-07-22T13:40:12.385Z,83.91
2018-07-22T13:42:41.185Z,85.31
2018-07-22T13:45:09.531Z,86.55
2018-07-22T13:47:37.821Z,86.23
2018-07-22T13:50:06.648Z,86.98
2018-07-22T13:52:35.014Z,87.50
2018-07-22T13:55:03.476Z,87.71
2018-07-22T13:57:32.152Z,86.79
2018-07-22T14:00:00.600Z,87.25
2018-07-22T14:02:29.893Z,88.03
2018-07-22T14:04:58.912Z,88.83
2018-07-22T14:07:27.975Z,89.29
2018-07-22T14:09:56.455Z,89.19
2018-07-22T14:12:25.066Z,89.05
2018-07-22T14:14:53.952Z,89.11
2018-07-22T14:17:22.377Z,88.10
2018-07-22T14:19:51.777Z,89.52
2018-07-22T14:22:20.256Z,88.39
2018-07-22T14:24:48.661Z,88.85
2018-07-22T14:27:17.075Z,87.78
2018-07-22T14:29:45.390Z,88.74
2018-07-22T14:32:14.245Z,88.95
2018-07-22T14:34:42.895Z,88.50
2018-07-22T14:37:11.641Z,89.34
2018-07-22T14:39:40.052Z,88.78
2018-07-22T14:42:08.567Z,87.78
2018-07-22T14:44:36.935Z,88.56
2018-07-22T14:47:05.790Z,89.72
2018-07-22T14:49:34.213Z,89.96
2018-07-22T14:52:02.623Z,89.89
2018-07-22T14:54:31.121Z,89.58
2018-07-22T14:56:59.731Z,89.19
2018-07-22T14:59:28.286Z,88.17
2018-07-22T15:01:56.866Z,88.85
2018-07-22T15:04:25.912Z,89.73
2018-07-22T15:06:54.746Z,89.73
2018-07-22T15:09:23.109Z,89.08
2018-07-22T15:11:51.471Z,87.89
2018-07-22T15:14:19.989Z,87.24
2018-07-22T15:16:48.534Z,87.51
2018-07-22T15:19:17.166Z,86.76
2018-07-22T15:21:45.506Z,87.24
2018-07-22T15:24:13.922Z,87.53
2018-07-22T15:26:42.455Z,89.03
2018-07-22T15:29:10.948Z,87.16
2018-07-22T15:31:39.418Z,87.36
2018-07-22T15:34:08.012Z,86.99
2018-07-22T15:36:36.574Z,85.87
2018-07-22T15:39:08.038Z,88.44
2018-07-22T15:41:36.490Z,90.46
2018-07-22T15:44:05.077Z,89.84
2018-07-22T15:46:34.231Z,90.84
2018-07-22T15:49:04.266Z,89.74
2018-07-22T15:51:37.577Z,90.43
2018-07-22T15:54:06.874Z,89.69
2018-07-22T15:56:35.838Z,89.02
2018-07-22T15:59:04.535Z,88.42
2018-07-22T16:01:32.862Z,89.31
2018-07-22T16:04:01.419Z,89.49
2018-07-22T16:06:30.371Z,89.13
2018-07-22T16:08:58.912Z,89.60
2018-07-22T16:11:28.664Z,89.77
2018-07-22T16:14:00.364Z,90.37
2018-07-22T16:16:29.386Z,89.46
2018-07-22T16:19:09.774Z,88.96
2018-07-22T16:21:53.768Z,87.88
2018-07-22T16:24:23.388Z,87.72
2018-07-22T16:26:52.089Z,87.39
2018-07-22T16:29:21.117Z,87.87
2018-07-22T16:31:49.943Z,88.54
2018-07-22T16:34:18.287Z,88.25
2018-07-22T16:36:46.749Z,88.45
2018-07-22T16:39:25.765Z,89.54
2018-07-22T16:41:54.270Z,89.16
2018-07-22T16:44:22.554Z,89.23
2018-07-22T16:46:51.775Z,90.25
2018-07-22T16:49:20.227Z,91.61
2018-07-22T16:51:48.579Z,92.54
2018-07-22T16:54:16.898Z,91.94
2018-07-22T16:56:45.324Z,91.34
2018-07-22T16:59:13.631Z,90.25
2018-07-22T17:01:41.967Z,89.42
2018-07-22T17:04:12.043Z,90.25
2018-07-22T17:06:40.418Z,89.57
2018-07-22T17:09:12.106Z,88.83
2018-07-22T17:11:44.016Z,88.52
2018-07-22T17:14:12.370Z,89.05
2018-07-22T17:16:40.650Z,89.26
2018-07-22T17:19:09.070Z,88.46
2018-07-22T17:21:37.384Z,88.42
2018-07-22T17:24:05.926Z,88.25
2018-07-22T17:26:34.306Z,88.10
2018-07-22T17:29:02.615Z,88.78
2018-07-22T17:31:31.537Z,88.57
2018-07-22T17:34:01.295Z,89.32
2018-07-22T17:36:30.681Z,90.61
2018-07-22T17:38:59.177Z,90.70
2018-07-22T17:41:27.576Z,91.81
2018-07-22T17:43:55.935Z,90.77
2018-07-22T17:46:24.253Z,90.63
2018-07-22T17:48:52.604Z,90.50
2018-07-22T17:51:20.969Z,90.29
2018-07-22T17:53:49.454Z,89.81
2018-07-22T17:56:17.723Z,89.55
2018-07-22T17:58:46.611Z,90.15
2018-07-22T18:01:15.107Z,90.93
2018-07-22T18:03:43.575Z,90.42
2018-07-22T18:06:11.905Z,89.97
2018-07-22T18:08:40.232Z,89.21
2018-07-22T18:11:08.567Z,89.18
2018-07-22T18:13:36.976Z,89.09
2018-07-22T18:16:05.279Z,88.04
2018-07-22T18:18:35.429Z,88.70
2018-07-22T18:21:05.495Z,88.63
2018-07-22T18:23:38.489Z,89.31
2018-07-22T18:26:08.583Z,90.28
2018-07-22T18:28:37.008Z,90.65
2018-07-22T18:31:05.305Z,90.25
2018-07-22T18:33:33.710Z,90.11
2018-07-22T18:36:02.073Z,89.90
2018-07-22T18:38:30.814Z,89.15
2018-07-22T18:41:00.072Z,89.25
2018-07-22T18:43:33.636Z,90.59
2018-07-22T18:46:01.924Z,90.88
2018-07-22T18:48:30.294Z,91.68
2018-07-22T18:51:00.229Z,91.99
2018-07-22T18:53:28.593Z,91.51
2018-07-22T18:55:59.906Z,91.15
2018-07-22T18:58:30.456Z,91.00
2018-07-22T19:00:58.795Z,90.31
2018-07-22T19:03:27.635Z,89.52
2018-07-22T19:05:58.016Z,90.51
2018-07-22T19:08:31.876Z,90.62
2018-07-22T19:11:01.307Z,91.17
2018-07-22T19:13:29.762Z,91.54
2018-07-22T19:15:59.791Z,91.52
2018-07-22T19:18:31.153Z,90.36
2018-07-22T19:21:00.697Z,90.17
2018-07-22T19:23:29.101Z,90.63
2018-07-22T19:25:58.899Z,90.97
2018-07-22T19:28:28.619Z,90.01
2018-07-22T19:30:57.598Z,90.25
2018-07-22T19:33:27.528Z,91.44
2018-07-22T19:35:56.163Z,91.58
2018-07-22T19:38:25.081Z,91.65
2018-07-22T19:40:54.926Z,91.09
2018-07-22T19:43:24.719Z,91.14
2018-07-22T19:45:54.149Z,89.90
2018-07-22T19:48:25.554Z,90.43
2018-07-22T19:50:55.456Z,90.33
2018-07-22T19:53:24.526Z,91.48
2018-07-22T19:55:53.539Z,91.45
2018-07-22T19:58:21.944Z,91.69
2018-07-22T20:00:50.284Z,90.85
2018-07-22T20:03:18.590Z,91.31
2018-07-22T20:05:47.012Z,91.61
2018-07-22T20:08:15.362Z,91.19
2018-07-22T20:10:44.009Z,91.55
2018-07-22T20:13:12.491Z,92.44
2018-07-22T20:15:40.843Z,92.81
2018-07-22T20:18:09.283Z,91.90
2018-07-22T20:20:37.638Z,91.83
2018-07-22T20:23:05.968Z,91.83
2018-07-22T20:25:34.478Z,92.11
2018-07-22T20:28:02.959Z,92.28
2018-07-22T20:30:31.292Z,91.92
2018-07-22T20:32:59.580Z,91.28
2018-07-22T20:35:27.959Z,91.57
2018-07-22T20:37:57.450Z,91.65
2018-07-22T20:40:25.791Z,91.23
2018-07-22T20:42:54.130Z,90.91
2018-07-22T20:45:22.711Z,90.60
2018-07-22T20:47:52.530Z,91.66
2018-07-22T20:50:21.048Z,91.84
2018-07-22T20:52:49.362Z,92.14
2018-07-22T20:55:17.703Z,91.95
2018-07-22T20:57:46.063Z,93.21
2018-07-22T21:00:14.699Z,92.94
2018-07-22T21:02:46.011Z,92.17
2018-07-22T21:05:14.342Z,91.75
2018-07-22T21:07:42.660Z,92.37
2018-07-22T21:10:11.006Z,91.94
2018-07-22T21:12:51.932Z,91.45
2018-07-22T21:15:20.472Z,91.87
2018-07-22T21:17:50.227Z,91.98
2018-07-22T21:20:19.519Z,92.19
2018-07-22T21:22:48.207Z,92.45
2018-07-22T21:25:17.031Z,92.74
2018-07-22T21:27:45.619Z,92.91
2018-07-22T21:30:14.622Z,92.37
2018-07-22T21:32:42.937Z,92.95
2018-07-22T21:35:11.436Z,92.79
2018-07-22T21:37:39.935Z,92.60
2018-07-22T21:40:08.301Z,92.19
2018-07-22T21:42:36.670Z,91.85
2018-07-22T21:45:06.101Z,92.71
2018-07-22T21:47:34.948Z,92.28
2018-07-22T21:50:03.322Z,92.25
2018-07-22T21:52:31.651Z,91.59
2018-07-22T21:54:59.978Z,91.33
2018-07-22T21:57:28.314Z,91.17
2018-07-22T21:59:56.668Z,91.28
2018-07-22T22:02:31.603Z,93.03
2018-07-22T22:05:00.595Z,93.62
2018-07-22T22:07:28.896Z,93.37
2018-07-22T22:09:57.300Z,93.67
2018-07-22T22:12:25.577Z,94.10
2018-07-22T22:14:54.006Z,93.14
2018-07-22T22:17:22.388Z,92.51
2018-07-22T22:19:50.754Z,92.65
2018-07-22T22:22:19.029Z,92.39
2018-07-22T22:24:47.467Z,91.82
2018-07-22T22:27:16.550Z,92.88
2018-07-22T22:29:44.862Z,92.70
2018-07-22T22:32:13.277Z,92.26
2018-07-22T22:34:42.076Z,91.90
2018-07-22T22:37:10.400Z,91.22
2018-07-22T22:39:43.398Z,91.47
2018-07-22T22:42:11.778Z,92.17
2018-07-22T22:44:40.065Z,92.57
2018-07-22T22:47:08.378Z,93.00
2018-07-22T22:49:36.663Z,93.59
2018-07-22T22:52:05.146Z,93.13
2018-07-22T22:54:34.089Z,93.58
2018-07-22T22:57:02.418Z,92.98
2018-07-22T22:59:30.716Z,92.64
2018-07-22T23:01:59.070Z,91.79
2018-07-22T23:04:27.419Z,91.60
2018-07-22T23:06:55.767Z,91.42
2018-07-22T23:09:24.109Z,92.17
2018-07-22T23:11:52.454Z,92.35
2018-07-22T23:14:20.780Z,92.26
2018-07-22T23:16:49.211Z,91.77
2018-07-22T23:19:17.520Z,91.42
2018-07-22T23:21:45.858Z,92.61
2018-07-22T23:24:14.141Z,92.81
2018-07-22T23:26:42.503Z,93.04
2018-07-22T23:29:10.782Z,92.54
2018-07-22T23:31:39.080Z,93.81
2018-07-22T23:34:07.394Z,94.02
2018-07-22T23:36:35.693Z,94.60
2018-07-22T23:39:06.163Z,94.14
2018-07-22T23:41:34.606Z,93.50
2018-07-22T23:44:02.914Z,93.20
2018-07-22T23:46:31.228Z,93.17
2018-07-22T23:48:59.493Z,92.89
2018-07-22T23:51:27.800Z,92.42
2018-07-22T23:53:56.088Z,92.79
2018-07-22T23:56:24.420Z,93.12
2018-07-22T23:58:52.727Z,93.56
